createdAt,value
2022-11-21T00:00:22.256Z,2.74
2022-11-21T00:01:22.255Z,2.79
2022-11-21T00:02:22.294Z,2.74
2022-11-21T00:03:22.239Z,2.66
2022-11-21T00:04:22.247Z,2.67
2022-11-21T00:05:22.223Z,2.51
2022-11-21T00:06:22.222Z,2.52
2022-11-21T00:07:22.268Z,2.52
2022-11-21T00:08:22.206Z,2.40
2022-11-21T00:09:22.196Z,2.31
2022-11-21T00:10:22.198Z,2.31
2022-11-21T00:11:22.188Z,2.40
2022-11-21T00:12:22.203Z,2.35
2022-11-21T00:13:22.177Z,2.45
2022-11-21T00:14:22.163Z,2.34
2022-11-21T00:15:22.164Z,2.33
2022-11-21T00:16:22.152Z,2.40
2022-11-21T00:17:22.145Z,2.37
2022-11-21T00:18:22.146Z,2.44
2022-11-21T00:19:22.126Z,2.49
2022-11-21T00:20:22.130Z,2.58
2022-11-21T00:21:22.118Z,2.66
2022-11-21T00:22:22.111Z,2.70
2022-11-21T00:23:22.121Z,2.73
2022-11-21T00:24:22.090Z,2.77
2022-11-21T00:25:23.083Z,2.85
2022-11-21T00:26:22.092Z,2.79
2022-11-21T00:27:22.092Z,2.91
2022-11-21T00:28:22.071Z,2.94
2022-11-21T00:29:22.079Z,2.88
2022-11-21T00:30:22.066Z,2.92
2022-11-21T00:31:22.048Z,2.82
2022-11-21T00:32:22.053Z,2.85
2022-11-21T00:33:22.039Z,2.89
2022-11-21T00:34:23.717Z,2.98
2022-11-21T00:35:23.050Z,2.88
2022-11-21T00:36:22.491Z,2.98
2022-11-21T00:37:22.727Z,3.00
2022-11-21T00:38:22.427Z,3.02
2022-11-21T00:39:23.942Z,3.05
2022-11-21T00:40:23.438Z,3.09
2022-11-21T00:41:22.778Z,3.09
2022-11-21T00:42:22.425Z,3.15
2022-11-21T00:43:22.331Z,3.12
2022-11-21T00:44:22.390Z,3.18
2022-11-21T00:45:24.540Z,3.23
2022-11-21T00:46:23.323Z,3.21
2022-11-21T00:47:22.918Z,3.25
2022-11-21T00:48:23.087Z,3.16
2022-11-21T00:49:22.943Z,3.31
2022-11-21T00:50:22.425Z,3.28
2022-11-21T00:51:22.287Z,3.28
2022-11-21T00:52:22.390Z,3.36
2022-11-21T00:53:23.134Z,3.40
2022-11-21T00:54:23.118Z,3.31
2022-11-21T00:55:23.659Z,3.31
2022-11-21T00:56:23.035Z,3.12
2022-11-21T00:57:22.421Z,2.91
2022-11-21T00:58:23.360Z,2.97
2022-11-21T00:59:22.361Z,3.00
2022-11-21T01:00:22.456Z,3.02
2022-11-21T01:01:22.387Z,3.06
2022-11-21T01:02:22.355Z,3.09
2022-11-21T01:03:22.566Z,3.02
2022-11-21T01:04:23.120Z,3.02
2022-11-21T01:05:23.094Z,3.05
2022-11-21T01:06:23.100Z,3.10
2022-11-21T01:07:22.318Z,3.02
2022-11-21T01:08:22.393Z,3.02
2022-11-21T01:09:22.298Z,3.07
2022-11-21T01:10:22.322Z,3.15
2022-11-21T01:11:23.231Z,3.18
2022-11-21T01:12:22.317Z,3.12
2022-11-21T01:13:22.322Z,3.16
2022-11-21T01:14:23.201Z,3.15
2022-11-21T01:15:22.233Z,3.21
2022-11-21T01:16:23.063Z,3.27
2022-11-21T01:17:22.250Z,3.23
2022-11-21T01:18:22.264Z,3.18
2022-11-21T01:19:22.277Z,3.16
2022-11-21T01:20:21.718Z,3.15
2022-11-21T01:21:21.708Z,3.15
2022-11-21T01:22:21.693Z,3.07
2022-11-21T01:23:21.686Z,3.10
2022-11-21T01:24:21.689Z,3.20
2022-11-21T01:25:21.692Z,3.18
2022-11-21T01:26:21.676Z,3.20
2022-11-21T01:27:21.669Z,3.20
2022-11-21T01:28:21.658Z,3.21
2022-11-21T01:29:21.651Z,3.21
2022-11-21T01:30:21.646Z,3.39
2022-11-21T01:31:21.657Z,3.25
2022-11-21T01:32:21.624Z,3.27
2022-11-21T01:33:21.630Z,3.27
2022-11-21T01:34:21.617Z,3.42
2022-11-21T01:35:21.610Z,3.42
2022-11-21T01:36:21.622Z,3.40
2022-11-21T01:37:21.598Z,3.44
2022-11-21T01:38:21.589Z,3.42
2022-11-21T01:39:21.593Z,3.31
2022-11-21T01:40:21.583Z,3.47
2022-11-21T01:41:21.567Z,3.46
2022-11-21T01:42:21.578Z,3.47
2022-11-21T01:43:21.565Z,3.53
2022-11-21T01:44:21.556Z,3.42
2022-11-21T01:45:21.546Z,3.40
2022-11-21T01:46:21.554Z,3.61
2022-11-21T01:47:21.546Z,3.40
2022-11-21T01:48:21.526Z,3.40
2022-11-21T01:49:21.531Z,3.40
2022-11-21T01:50:21.509Z,3.42
2022-11-21T01:51:21.501Z,3.42
2022-11-21T01:52:21.501Z,3.25
2022-11-21T01:53:21.505Z,3.28
2022-11-21T01:54:21.477Z,3.31
2022-11-21T01:55:21.476Z,3.23
2022-11-21T01:56:21.470Z,3.21
2022-11-21T01:57:21.474Z,3.21
2022-11-21T01:58:21.469Z,3.24
2022-11-21T01:59:21.449Z,3.15
2022-11-21T02:00:21.458Z,3.21
2022-11-21T02:01:21.493Z,3.23
2022-11-21T02:02:21.443Z,3.21
2022-11-21T02:03:21.429Z,3.25
2022-11-21T02:04:21.427Z,3.24
2022-11-21T02:05:21.432Z,3.27
2022-11-21T02:06:21.405Z,3.21
2022-11-21T02:07:21.476Z,3.24
2022-11-21T02:08:21.392Z,3.20
2022-11-21T02:09:21.382Z,3.21
2022-11-21T02:10:21.374Z,3.27
2022-11-21T02:11:21.372Z,3.16
2022-11-21T02:12:21.360Z,3.16
2022-11-21T02:13:21.370Z,3.07
2022-11-21T02:14:21.352Z,3.20
2022-11-21T02:15:21.344Z,3.13
2022-11-21T02:16:21.336Z,3.03
2022-11-21T02:17:21.330Z,3.10
2022-11-21T02:18:21.335Z,2.98
2022-11-21T02:19:21.321Z,2.95
2022-11-21T02:20:21.314Z,2.94
2022-11-21T02:21:21.307Z,2.97
2022-11-21T02:22:21.298Z,2.92
2022-11-21T02:23:21.306Z,2.89
2022-11-21T02:24:21.305Z,2.94
2022-11-21T02:25:21.285Z,2.76
2022-11-21T02:26:21.276Z,2.82
2022-11-21T02:27:21.268Z,2.88
2022-11-21T02:28:21.262Z,2.79
2022-11-21T02:29:21.285Z,2.84
2022-11-21T02:30:21.237Z,2.84
2022-11-21T02:31:21.246Z,2.87
2022-11-21T02:32:21.237Z,2.84
2022-11-21T02:33:21.234Z,2.81
2022-11-21T02:34:21.220Z,2.92
2022-11-21T02:35:21.221Z,2.84
2022-11-21T02:36:21.205Z,2.91
2022-11-21T02:37:21.226Z,2.77
2022-11-21T02:38:21.192Z,2.79
2022-11-21T02:39:21.180Z,2.84
2022-11-21T02:40:21.196Z,2.81
2022-11-21T02:41:21.172Z,2.74
2022-11-21T02:42:21.179Z,2.73
2022-11-21T02:43:21.165Z,2.70
2022-11-21T02:44:21.157Z,2.79
2022-11-21T02:45:21.167Z,2.70
2022-11-21T02:46:21.138Z,2.73
2022-11-21T02:47:22.133Z,2.64
2022-11-21T02:48:21.165Z,2.76
2022-11-21T02:49:21.118Z,2.66
2022-11-21T02:50:21.108Z,2.71
2022-11-21T02:51:21.112Z,2.61
2022-11-21T02:52:21.097Z,2.69
2022-11-21T02:53:21.113Z,2.66
2022-11-21T02:54:21.090Z,2.71
2022-11-21T02:55:21.071Z,2.67
2022-11-21T02:56:21.073Z,2.61
2022-11-21T02:57:21.083Z,2.53
2022-11-21T02:58:21.057Z,2.55
2022-11-21T02:59:21.042Z,2.67
2022-11-21T03:00:22.053Z,2.56
2022-11-21T03:01:21.090Z,2.64
2022-11-21T03:02:21.052Z,2.61
2022-11-21T03:03:21.019Z,2.74
2022-11-21T03:04:21.009Z,2.66
2022-11-21T03:05:21.011Z,2.79
2022-11-21T03:06:21.013Z,2.85
2022-11-21T03:07:21.016Z,2.77
2022-11-21T03:08:21.005Z,2.79
2022-11-21T03:09:20.984Z,2.87
2022-11-21T03:10:21.001Z,2.79
2022-11-21T03:11:20.969Z,2.84
2022-11-21T03:12:20.966Z,2.82
2022-11-21T03:13:20.976Z,2.88
2022-11-21T03:14:20.948Z,2.76
2022-11-21T03:15:20.937Z,2.82
2022-11-21T03:16:20.937Z,2.71
2022-11-21T03:17:20.928Z,2.77
2022-11-21T03:18:20.928Z,2.76
2022-11-21T03:19:20.917Z,2.70
2022-11-21T03:20:20.908Z,2.69
2022-11-21T03:21:20.912Z,2.74
2022-11-21T03:22:20.892Z,2.69
2022-11-21T03:23:20.884Z,2.74
2022-11-21T03:24:20.881Z,2.82
2022-11-21T03:25:20.876Z,2.69
2022-11-21T03:26:20.875Z,2.69
2022-11-21T03:27:20.856Z,2.64
2022-11-21T03:28:20.849Z,2.71
2022-11-21T03:29:20.848Z,2.64
2022-11-21T03:30:20.861Z,2.64
2022-11-21T03:31:20.828Z,2.55
2022-11-21T03:32:20.824Z,2.49
2022-11-21T03:33:20.819Z,2.51
2022-11-21T03:34:20.808Z,2.48
2022-11-21T03:35:20.813Z,2.38
2022-11-21T03:36:20.804Z,2.35
2022-11-21T03:37:20.792Z,2.35
2022-11-21T03:38:20.798Z,2.26
2022-11-21T03:39:20.770Z,2.09
2022-11-21T03:40:20.773Z,2.08
2022-11-21T03:41:20.784Z,2.10
2022-11-21T03:42:20.744Z,2.13
2022-11-21T03:43:20.744Z,2.16
2022-11-21T03:44:20.729Z,2.17
2022-11-21T03:45:20.733Z,2.01
2022-11-21T03:46:20.730Z,1.98
2022-11-21T03:47:20.731Z,1.94
2022-11-21T03:48:20.709Z,2.06
2022-11-21T03:49:20.709Z,2.04
2022-11-21T03:50:20.701Z,2.06
2022-11-21T03:51:20.692Z,2.06
2022-11-21T03:52:20.696Z,2.15
2022-11-21T03:53:20.668Z,2.13
2022-11-21T03:54:20.668Z,2.09
2022-11-21T03:55:20.664Z,2.02
2022-11-21T03:56:20.661Z,1.93
2022-11-21T03:57:20.672Z,1.97
2022-11-21T03:58:20.640Z,1.93
2022-11-21T03:59:20.637Z,2.01
2022-11-21T04:00:20.629Z,2.01
2022-11-21T04:01:20.735Z,2.04
2022-11-21T04:02:21.621Z,2.01
2022-11-21T04:03:20.613Z,1.98
2022-11-21T04:04:20.605Z,1.87
2022-11-21T04:05:20.580Z,2.02
2022-11-21T04:06:20.598Z,1.94
2022-11-21T04:07:20.623Z,1.83
2022-11-21T04:08:21.580Z,1.90
2022-11-21T04:09:20.569Z,1.99
2022-11-21T04:10:20.568Z,1.91
2022-11-21T04:11:20.553Z,2.01
2022-11-21T04:12:20.543Z,1.97
2022-11-21T04:13:20.552Z,1.99
2022-11-21T04:14:20.544Z,1.89
2022-11-21T04:15:20.532Z,1.91
2022-11-21T04:16:20.519Z,1.97
2022-11-21T04:17:20.513Z,1.97
2022-11-21T04:18:20.507Z,1.93
2022-11-21T04:19:20.512Z,2.02
2022-11-21T04:20:20.500Z,2.02
2022-11-21T04:21:20.489Z,1.99
2022-11-21T04:22:20.483Z,1.89
2022-11-21T04:23:20.471Z,1.94
2022-11-21T04:24:20.474Z,1.98
2022-11-21T04:25:20.492Z,1.89
2022-11-21T04:26:20.525Z,2.01
2022-11-21T04:27:20.440Z,1.99
2022-11-21T04:28:20.435Z,1.98
2022-11-21T04:29:20.432Z,1.82
2022-11-21T04:30:20.436Z,1.78
2022-11-21T04:31:20.423Z,1.73
2022-11-21T04:32:20.422Z,1.75
2022-11-21T04:33:20.406Z,1.91
2022-11-21T04:34:20.406Z,1.83
2022-11-21T04:35:20.384Z,1.98
2022-11-21T04:36:20.392Z,1.78
2022-11-21T04:37:20.423Z,1.71
2022-11-21T04:38:20.359Z,1.62
2022-11-21T04:39:20.368Z,1.50
2022-11-21T04:40:20.355Z,1.42
2022-11-21T04:41:20.364Z,1.28
2022-11-21T04:42:20.345Z,1.26
2022-11-21T04:43:20.342Z,1.25
2022-11-21T04:44:20.332Z,1.18
2022-11-21T04:45:20.324Z,1.16
2022-11-21T04:46:20.337Z,1.22
2022-11-21T04:47:20.316Z,1.28
2022-11-21T04:48:20.309Z,1.29
2022-11-21T04:49:20.296Z,1.33
2022-11-21T04:50:20.304Z,1.42
2022-11-21T04:51:20.320Z,1.50
2022-11-21T04:52:20.286Z,1.51
2022-11-21T04:53:20.285Z,1.51
2022-11-21T04:54:20.269Z,1.32
2022-11-21T04:55:20.256Z,1.36
2022-11-21T04:56:20.473Z,1.33
2022-11-21T04:57:20.244Z,1.29
2022-11-21T04:58:20.236Z,1.24
2022-11-21T04:59:20.244Z,1.26
2022-11-21T05:00:24.189Z,1.21
2022-11-21T05:01:21.275Z,1.25
2022-11-21T05:02:20.215Z,1.36
2022-11-21T05:03:20.208Z,1.24
2022-11-21T05:04:20.205Z,1.37
2022-11-21T05:05:20.414Z,1.39
2022-11-21T05:06:20.188Z,1.52
2022-11-21T05:07:20.222Z,1.50
2022-11-21T05:08:20.173Z,1.55
2022-11-21T05:09:20.177Z,1.57
2022-11-21T05:10:20.175Z,1.60
2022-11-21T05:11:20.160Z,1.71
2022-11-21T05:12:20.148Z,1.61
2022-11-21T05:13:20.152Z,1.69
2022-11-21T05:14:20.136Z,1.75
2022-11-21T05:15:24.365Z,1.79
2022-11-21T05:16:21.126Z,1.78
2022-11-21T05:17:20.122Z,1.91
2022-11-21T05:18:20.113Z,1.93
2022-11-21T05:19:20.088Z,1.80
2022-11-21T05:20:20.087Z,1.87
2022-11-21T05:21:20.108Z,1.90
2022-11-21T05:22:20.092Z,1.87
2022-11-21T05:23:20.069Z,1.90
2022-11-21T05:24:20.071Z,2.01
2022-11-21T05:25:20.072Z,1.98
2022-11-21T05:26:20.065Z,1.98
2022-11-21T05:27:20.032Z,1.91
2022-11-21T05:28:20.041Z,1.94
2022-11-21T05:29:25.165Z,1.97
2022-11-21T05:30:22.031Z,1.98
2022-11-21T05:31:20.040Z,1.99
2022-11-21T05:32:20.033Z,1.94
2022-11-21T05:33:20.012Z,1.93
2022-11-21T05:34:20.016Z,1.89
2022-11-21T05:35:19.995Z,1.80
2022-11-21T05:36:19.999Z,1.73
2022-11-21T05:37:20.000Z,1.69
2022-11-21T05:38:19.973Z,1.73
2022-11-21T05:39:19.972Z,1.73
2022-11-21T05:40:19.960Z,1.76
2022-11-21T05:41:19.948Z,1.71
2022-11-21T05:42:19.972Z,1.76
2022-11-21T05:43:19.944Z,1.75
2022-11-21T05:44:19.927Z,1.85
2022-11-21T05:45:20.572Z,1.78
2022-11-21T05:46:19.924Z,1.68
2022-11-21T05:47:19.925Z,1.71
2022-11-21T05:48:20.032Z,1.65
2022-11-21T05:49:19.944Z,1.58
2022-11-21T05:50:19.892Z,1.57
2022-11-21T05:51:19.888Z,1.60
2022-11-21T05:52:19.888Z,1.58
2022-11-21T05:53:20.898Z,1.55
2022-11-21T05:54:19.864Z,1.62
2022-11-21T05:55:19.857Z,1.65
2022-11-21T05:56:19.834Z,1.72
2022-11-21T05:57:19.846Z,1.78
2022-11-21T05:58:19.856Z,1.91
2022-11-21T05:59:19.824Z,1.91
2022-11-21T06:00:19.833Z,1.85
2022-11-21T06:01:19.817Z,1.90
2022-11-21T06:02:19.808Z,1.93
2022-11-21T06:03:19.816Z,2.02
2022-11-21T06:04:19.813Z,2.04
2022-11-21T06:05:19.796Z,1.98
2022-11-21T06:06:24.730Z,2.01
2022-11-21T06:07:21.821Z,2.10
2022-11-21T06:08:19.792Z,2.15
2022-11-21T06:09:19.760Z,2.12
2022-11-21T06:10:19.778Z,2.19
2022-11-21T06:11:19.759Z,2.04
2022-11-21T06:12:25.101Z,2.09
2022-11-21T06:13:21.749Z,2.08
2022-11-21T06:14:19.736Z,2.15
2022-11-21T06:15:19.754Z,2.12
2022-11-21T06:16:19.722Z,2.17
2022-11-21T06:17:19.712Z,2.20
2022-11-21T06:18:19.768Z,2.31
2022-11-21T06:19:19.701Z,2.30
2022-11-21T06:20:19.691Z,2.34
2022-11-21T06:21:19.708Z,2.33
2022-11-21T06:22:19.685Z,2.31
2022-11-21T06:23:19.672Z,2.35
2022-11-21T06:24:24.646Z,2.30
2022-11-21T06:25:20.664Z,2.28
2022-11-21T06:26:19.686Z,2.31
2022-11-21T06:27:19.648Z,2.26
2022-11-21T06:28:19.636Z,2.33
2022-11-21T06:29:19.636Z,2.22
2022-11-21T06:30:22.315Z,2.20
2022-11-21T06:31:20.638Z,2.38
2022-11-21T06:32:19.724Z,2.31
2022-11-21T06:33:19.649Z,2.40
2022-11-21T06:34:19.607Z,2.38
2022-11-21T06:35:19.623Z,2.31
2022-11-21T06:36:19.588Z,2.27
2022-11-21T06:37:19.584Z,2.04
2022-11-21T06:38:19.585Z,1.87
2022-11-21T06:39:20.574Z,1.97
2022-11-21T06:40:19.564Z,1.80
2022-11-21T06:41:19.563Z,1.90
2022-11-21T06:42:19.549Z,1.90
2022-11-21T06:43:19.556Z,1.93
2022-11-21T06:44:19.537Z,2.02
2022-11-21T06:45:19.536Z,1.94
2022-11-21T06:46:19.521Z,1.94
2022-11-21T06:47:19.533Z,1.93
2022-11-21T06:48:19.511Z,1.90
2022-11-21T06:49:19.509Z,1.85
2022-11-21T06:50:19.493Z,1.85
2022-11-21T06:51:19.488Z,1.87
2022-11-21T06:52:19.488Z,1.90
2022-11-21T06:53:19.500Z,1.98
2022-11-21T06:54:19.471Z,1.99
2022-11-21T06:55:19.464Z,2.04
2022-11-21T06:56:19.464Z,2.09
2022-11-21T06:57:19.455Z,2.04
2022-11-21T06:58:19.451Z,2.15
2022-11-21T06:59:19.448Z,2.20
2022-11-21T07:00:19.442Z,2.28
2022-11-21T07:01:19.482Z,2.88
2022-11-21T07:02:19.414Z,3.06
2022-11-21T07:03:19.423Z,3.21
2022-11-21T07:04:19.409Z,3.27
2022-11-21T07:05:19.408Z,3.28
2022-11-21T07:06:19.385Z,3.43
2022-11-21T07:07:19.399Z,3.39
2022-11-21T07:08:19.373Z,3.31
2022-11-21T07:09:33.417Z,3.25
2022-11-21T07:10:21.367Z,3.16
2022-11-21T07:11:26.481Z,3.05
2022-11-21T07:12:21.343Z,2.97
2022-11-21T07:13:19.336Z,2.95
2022-11-21T07:14:19.332Z,3.02
2022-11-21T07:15:19.336Z,2.85
2022-11-21T07:16:19.340Z,2.94
2022-11-21T07:17:19.309Z,2.84
2022-11-21T07:18:19.303Z,2.63
2022-11-21T07:19:19.296Z,2.48
2022-11-21T07:20:19.298Z,2.48
2022-11-21T07:21:19.300Z,2.48
2022-11-21T07:22:19.273Z,2.45
2022-11-21T07:23:19.269Z,2.52
2022-11-21T07:24:19.261Z,2.58
2022-11-21T07:25:19.253Z,2.64
2022-11-21T07:26:19.248Z,2.59
2022-11-21T07:27:19.300Z,2.58
2022-11-21T07:28:19.237Z,2.67
2022-11-21T07:29:19.228Z,2.69
2022-11-21T07:30:19.245Z,2.71
2022-11-21T07:31:19.217Z,2.76
2022-11-21T07:32:19.216Z,2.76
2022-11-21T07:33:19.215Z,2.82
2022-11-21T07:34:19.221Z,2.92
2022-11-21T07:35:19.229Z,2.89
2022-11-21T07:36:19.183Z,2.94
2022-11-21T07:37:19.181Z,2.98
2022-11-21T07:38:19.173Z,3.02
2022-11-21T07:39:19.168Z,3.15
2022-11-21T07:40:19.169Z,3.12
2022-11-21T07:41:19.152Z,3.06
2022-11-21T07:42:19.140Z,3.06
2022-11-21T07:43:19.129Z,3.16
2022-11-21T07:44:19.147Z,3.16
2022-11-21T07:45:19.139Z,3.18
2022-11-21T07:46:19.112Z,3.23
2022-11-21T07:47:19.108Z,3.16
2022-11-21T07:48:19.100Z,3.23
2022-11-21T07:49:19.112Z,3.25
2022-11-21T07:50:19.087Z,3.20
2022-11-21T07:51:19.117Z,3.25
2022-11-21T07:52:20.112Z,3.31
2022-11-21T07:53:19.065Z,3.31
2022-11-21T07:54:19.076Z,3.28
2022-11-21T07:55:19.068Z,3.24
2022-11-21T07:56:19.045Z,3.28
2022-11-21T07:57:19.042Z,3.39
2022-11-21T07:58:19.024Z,3.40
2022-11-21T07:59:19.037Z,3.28
2022-11-21T08:00:19.021Z,3.24
2022-11-21T08:01:19.046Z,3.42
2022-11-21T08:02:19.009Z,3.40
2022-11-21T08:03:19.000Z,3.43
2022-11-21T08:04:18.997Z,3.43
2022-11-21T08:05:18.984Z,3.36
2022-11-21T08:06:18.988Z,3.34
2022-11-21T08:07:19.034Z,3.36
2022-11-21T08:08:18.972Z,3.46
2022-11-21T08:09:18.960Z,3.39
2022-11-21T08:10:18.948Z,3.34
2022-11-21T08:11:18.957Z,3.39
2022-11-21T08:12:18.937Z,3.43
2022-11-21T08:13:18.938Z,3.21
2022-11-21T08:14:18.932Z,3.46
2022-11-21T08:15:18.912Z,3.36
2022-11-21T08:16:18.937Z,3.46
2022-11-21T08:17:18.913Z,3.46
2022-11-21T08:18:18.904Z,3.49
2022-11-21T08:19:18.900Z,3.44
2022-11-21T08:20:18.892Z,3.54
2022-11-21T08:21:20.108Z,3.60
2022-11-21T08:22:19.877Z,3.53
2022-11-21T08:23:18.874Z,3.62
2022-11-21T08:24:18.860Z,3.71
2022-11-21T08:25:18.851Z,3.71
2022-11-21T08:26:18.868Z,3.67
2022-11-21T08:27:18.905Z,3.72
2022-11-21T08:28:18.857Z,3.61
2022-11-21T08:29:18.828Z,3.67
2022-11-21T08:30:18.825Z,3.85
2022-11-21T08:31:18.834Z,3.82
2022-11-21T08:32:18.852Z,3.85
2022-11-21T08:33:18.812Z,3.86
2022-11-21T08:34:18.804Z,3.89
2022-11-21T08:35:18.800Z,3.88
2022-11-21T08:36:18.798Z,3.96
2022-11-21T08:37:18.800Z,3.90
2022-11-21T08:38:18.788Z,3.85
2022-11-21T08:39:18.768Z,3.88
2022-11-21T08:40:18.753Z,3.82
2022-11-21T08:41:18.758Z,3.71
2022-11-21T08:42:18.744Z,3.76
2022-11-21T08:43:18.745Z,3.70
2022-11-21T08:44:18.734Z,3.68
2022-11-21T08:45:18.744Z,3.65
2022-11-21T08:46:18.708Z,3.72
2022-11-21T08:47:18.713Z,3.67
2022-11-21T08:48:18.721Z,3.78
2022-11-21T08:49:18.709Z,3.67
2022-11-21T08:50:18.711Z,3.86
2022-11-21T08:51:18.689Z,3.76
2022-11-21T08:52:18.672Z,3.71
2022-11-21T08:53:18.681Z,3.82
2022-11-21T08:54:18.673Z,3.94
2022-11-21T08:55:18.677Z,3.78
2022-11-21T08:56:18.677Z,3.78
2022-11-21T08:57:18.651Z,3.85
2022-11-21T08:58:18.634Z,3.89
2022-11-21T08:59:18.636Z,3.86
2022-11-21T09:00:18.654Z,3.94
2022-11-21T09:01:18.692Z,3.92
2022-11-21T09:02:18.617Z,3.86
2022-11-21T09:03:23.598Z,3.92
2022-11-21T09:04:20.593Z,3.97
2022-11-21T09:05:18.592Z,4.04
2022-11-21T09:06:18.597Z,3.90
2022-11-21T09:07:18.619Z,3.82
2022-11-21T09:08:18.560Z,3.90
2022-11-21T09:09:24.894Z,3.83
2022-11-21T09:10:20.564Z,3.79
2022-11-21T09:11:18.560Z,3.88
2022-11-21T09:12:18.544Z,3.70
2022-11-21T09:13:18.537Z,3.57
2022-11-21T09:14:18.527Z,3.53
2022-11-21T09:15:18.532Z,3.52
2022-11-21T09:16:20.607Z,3.57
2022-11-21T09:17:19.520Z,3.52
2022-11-21T09:18:18.510Z,3.40
2022-11-21T09:19:18.503Z,3.47
2022-11-21T09:20:18.552Z,3.46
2022-11-21T09:21:18.494Z,3.40
2022-11-21T09:22:18.501Z,3.49
2022-11-21T09:23:18.510Z,3.43
2022-11-21T09:24:18.489Z,3.53
2022-11-21T09:25:18.476Z,3.58
2022-11-21T09:26:18.445Z,3.67
2022-11-21T09:27:18.436Z,3.57
2022-11-21T09:28:18.480Z,3.67
2022-11-21T09:29:18.430Z,3.65
2022-11-21T09:30:19.425Z,3.75
2022-11-21T09:31:18.413Z,3.88
2022-11-21T09:32:18.413Z,3.80
2022-11-21T09:33:18.426Z,3.86
2022-11-21T09:34:18.401Z,3.92
2022-11-21T09:35:18.405Z,3.86
2022-11-21T09:36:18.382Z,3.89
2022-11-21T09:37:18.387Z,3.89
2022-11-21T09:38:22.586Z,3.96
2022-11-21T09:39:20.388Z,3.98
2022-11-21T09:40:18.366Z,3.98
2022-11-21T09:41:18.348Z,3.92
2022-11-21T09:42:18.361Z,4.04
2022-11-21T09:43:18.344Z,4.14
2022-11-21T09:44:18.415Z,4.19
2022-11-21T09:45:18.325Z,4.15
2022-11-21T09:46:18.331Z,4.32
2022-11-21T09:47:18.316Z,4.26
2022-11-21T09:48:18.305Z,4.26
2022-11-21T09:49:18.315Z,4.29
2022-11-21T09:50:18.292Z,4.37
2022-11-21T09:51:18.288Z,4.36
2022-11-21T09:52:18.279Z,4.40
2022-11-21T09:53:18.259Z,4.36
2022-11-21T09:54:18.256Z,4.46
2022-11-21T09:55:18.279Z,4.46
2022-11-21T09:56:18.228Z,4.47
2022-11-21T09:57:18.240Z,4.47
2022-11-21T09:58:18.231Z,4.59
2022-11-21T09:59:18.224Z,4.55
2022-11-21T10:00:18.225Z,4.61
2022-11-21T10:01:18.371Z,4.64
2022-11-21T10:02:18.222Z,4.62
2022-11-21T10:03:22.335Z,4.61
2022-11-21T10:04:19.198Z,4.64
2022-11-21T10:05:18.180Z,4.61
2022-11-21T10:06:18.184Z,4.62
2022-11-21T10:07:18.214Z,4.62
2022-11-21T10:08:18.172Z,4.58
2022-11-21T10:09:18.156Z,4.65
2022-11-21T10:10:18.165Z,4.67
2022-11-21T10:11:20.202Z,4.55
2022-11-21T10:12:19.147Z,4.62
2022-11-21T10:13:18.172Z,4.70
2022-11-21T10:14:18.154Z,4.69
2022-11-21T10:15:18.123Z,4.67
2022-11-21T10:16:18.132Z,4.70
2022-11-21T10:17:18.107Z,4.58
2022-11-21T10:18:18.108Z,4.55
2022-11-21T10:19:18.104Z,4.51
2022-11-21T10:20:18.088Z,4.54
2022-11-21T10:21:18.080Z,4.46
2022-11-21T10:22:18.075Z,4.54
2022-11-21T10:23:18.080Z,4.59
2022-11-21T10:24:18.059Z,4.64
2022-11-21T10:25:19.767Z,4.61
2022-11-21T10:26:18.059Z,4.72
2022-11-21T10:27:18.043Z,4.77
2022-11-21T10:28:18.048Z,4.76
2022-11-21T10:29:18.033Z,4.73
2022-11-21T10:30:18.016Z,4.83
2022-11-21T10:31:18.032Z,4.84
2022-11-21T10:32:18.013Z,4.89
2022-11-21T10:33:18.000Z,4.98
2022-11-21T10:34:17.998Z,5.04
2022-11-21T10:35:17.992Z,5.10
2022-11-21T10:36:18.043Z,5.10
2022-11-21T10:37:17.978Z,5.16
2022-11-21T10:38:18.008Z,4.99
2022-11-21T10:39:17.967Z,5.01
2022-11-21T10:40:17.992Z,4.95
2022-11-21T10:41:17.958Z,4.89
2022-11-21T10:42:23.155Z,4.89
2022-11-21T10:43:19.943Z,4.73
2022-11-21T10:44:17.928Z,4.70
2022-11-21T10:45:17.920Z,4.64
2022-11-21T10:46:17.911Z,4.62
2022-11-21T10:47:17.915Z,4.55
2022-11-21T10:48:17.920Z,4.70
2022-11-21T10:49:17.895Z,4.79
2022-11-21T10:50:17.998Z,4.73
2022-11-21T10:51:17.883Z,4.80
2022-11-21T10:52:17.874Z,4.83
2022-11-21T10:53:17.879Z,4.79
2022-11-21T10:54:17.892Z,4.79
2022-11-21T10:55:17.855Z,4.70
2022-11-21T10:56:17.856Z,4.79
2022-11-21T10:57:17.847Z,4.88
2022-11-21T10:58:17.842Z,4.83
2022-11-21T10:59:17.844Z,4.84
2022-11-21T11:00:17.958Z,4.99
2022-11-21T11:01:17.871Z,5.09
2022-11-21T11:02:17.853Z,5.16
2022-11-21T11:03:17.815Z,5.20
2022-11-21T11:04:47.329Z,5.28
2022-11-21T11:05:19.791Z,5.34
2022-11-21T11:06:18.794Z,5.41
2022-11-21T11:07:17.834Z,5.45
2022-11-21T11:08:17.774Z,5.52
2022-11-21T11:09:17.783Z,5.60
2022-11-21T11:10:19.694Z,5.52
2022-11-21T11:11:17.767Z,5.74
2022-11-21T11:12:17.746Z,5.64
2022-11-21T11:13:45.121Z,5.66
2022-11-21T11:14:19.758Z,5.70
2022-11-21T11:15:17.735Z,5.67
2022-11-21T11:16:17.761Z,5.71
2022-11-21T11:17:17.721Z,5.71
2022-11-21T11:18:17.715Z,5.73
2022-11-21T11:19:17.725Z,5.81
2022-11-21T11:20:17.715Z,5.89
2022-11-21T11:21:17.694Z,5.86
2022-11-21T11:22:17.683Z,5.98
2022-11-21T11:23:17.683Z,6.13
2022-11-21T11:24:17.675Z,6.22
2022-11-21T11:25:17.690Z,6.32
2022-11-21T11:26:17.654Z,6.51
2022-11-21T11:27:17.644Z,6.69
2022-11-21T11:28:17.635Z,6.86
2022-11-21T11:29:17.642Z,6.97
2022-11-21T11:30:17.638Z,7.37
2022-11-21T11:31:17.631Z,7.53
2022-11-21T11:32:21.287Z,7.62
2022-11-21T11:33:17.608Z,7.78
2022-11-21T11:34:17.602Z,7.87
2022-11-21T11:35:17.595Z,7.92
2022-11-21T11:36:17.595Z,7.97
2022-11-21T11:37:17.575Z,7.82
2022-11-21T11:38:17.575Z,7.38
2022-11-21T11:39:17.569Z,6.89
2022-11-21T11:40:17.559Z,6.50
2022-11-21T11:41:17.556Z,6.43
2022-11-21T11:42:17.553Z,6.32
2022-11-21T11:43:17.539Z,6.29
2022-11-21T11:44:17.527Z,6.38
2022-11-21T11:45:17.529Z,6.29
2022-11-21T11:46:17.522Z,6.40
2022-11-21T11:47:17.526Z,6.44
2022-11-21T11:48:17.511Z,6.56
2022-11-21T11:49:20.722Z,6.84
2022-11-21T11:50:18.495Z,6.97
2022-11-21T11:51:17.489Z,7.13
2022-11-21T11:52:17.494Z,7.23
2022-11-21T11:53:17.487Z,7.24
2022-11-21T11:54:17.467Z,7.32
2022-11-21T11:55:17.454Z,7.15
2022-11-21T11:56:17.444Z,7.20
2022-11-21T11:57:17.454Z,7.27
2022-11-21T11:58:17.438Z,7.07
2022-11-21T11:59:17.424Z,6.83
2022-11-21T12:00:17.415Z,6.51
2022-11-21T12:01:17.423Z,6.35
2022-11-21T12:02:17.501Z,6.11
2022-11-21T12:03:17.415Z,5.96
2022-11-21T12:04:17.395Z,6.09
2022-11-21T12:05:17.383Z,6.25
2022-11-21T12:06:17.380Z,6.46
2022-11-21T12:08:33.307Z,6.62
2022-11-21T12:09:19.402Z,6.87
2022-11-21T12:10:17.343Z,6.95
2022-11-21T12:11:21.097Z,6.77
2022-11-21T12:12:18.335Z,6.80
2022-11-21T12:13:17.343Z,6.72
2022-11-21T12:14:17.331Z,6.71
2022-11-21T12:15:17.320Z,6.69
2022-11-21T12:16:17.305Z,6.79
2022-11-21T12:17:17.299Z,6.83
2022-11-21T12:18:17.298Z,6.94
2022-11-21T12:19:17.283Z,6.94
2022-11-21T12:20:17.278Z,6.91
2022-11-21T12:21:17.284Z,6.90
2022-11-21T12:22:17.265Z,6.94
2022-11-21T12:23:17.267Z,7.02
2022-11-21T12:24:17.252Z,6.89
2022-11-21T12:25:17.249Z,6.89
2022-11-21T12:26:17.305Z,6.79
2022-11-21T12:27:17.240Z,6.83
2022-11-21T12:28:17.250Z,6.71
2022-11-21T12:29:17.230Z,6.76
2022-11-21T12:30:17.208Z,6.71
2022-11-21T12:31:17.202Z,6.56
2022-11-21T12:32:17.195Z,6.62
2022-11-21T12:33:17.195Z,6.68
2022-11-21T12:34:17.192Z,6.77
2022-11-21T12:35:17.179Z,6.72
2022-11-21T12:36:18.597Z,6.81
2022-11-21T12:37:18.167Z,6.84
2022-11-21T12:38:17.155Z,6.97
2022-11-21T12:39:17.155Z,6.84
2022-11-21T12:40:17.143Z,6.95
2022-11-21T12:41:17.135Z,7.02
2022-11-21T12:42:17.122Z,7.01
2022-11-21T12:43:17.127Z,7.07
2022-11-21T12:44:17.132Z,7.15
2022-11-21T12:45:17.098Z,7.09
2022-11-21T12:46:17.907Z,7.22
2022-11-21T12:47:17.095Z,7.27
2022-11-21T12:48:17.079Z,7.32
2022-11-21T12:49:17.074Z,7.22
2022-11-21T12:50:17.089Z,7.38
2022-11-21T12:51:17.046Z,7.35
2022-11-21T12:52:17.047Z,7.27
2022-11-21T12:53:17.052Z,7.35
2022-11-21T12:54:17.043Z,7.31
2022-11-21T12:55:17.056Z,7.32
2022-11-21T12:56:17.030Z,7.35
2022-11-21T12:57:17.046Z,7.34
2022-11-21T12:58:17.008Z,7.22
2022-11-21T12:59:16.994Z,7.13
2022-11-21T13:00:16.994Z,7.19
2022-11-21T13:01:21.347Z,7.08
2022-11-21T13:02:17.991Z,7.24
2022-11-21T13:03:16.977Z,7.20
2022-11-21T13:04:16.964Z,7.22
2022-11-21T13:05:16.983Z,7.27
2022-11-21T13:06:16.978Z,7.27
2022-11-21T13:07:16.974Z,7.27
2022-11-21T13:08:22.872Z,7.34
2022-11-21T13:09:18.945Z,7.38
2022-11-21T13:10:16.937Z,7.35
2022-11-21T13:11:16.931Z,7.26
2022-11-21T13:12:16.921Z,7.24
2022-11-21T13:13:16.908Z,7.29
2022-11-21T13:14:16.903Z,7.20
2022-11-21T13:15:16.902Z,7.22
2022-11-21T13:16:16.895Z,7.19
2022-11-21T13:17:16.917Z,7.17
2022-11-21T13:18:16.878Z,7.08
2022-11-21T13:19:16.867Z,7.13